Deva — A8OK3 — position and weather

sailwx.info

Track history (hours):
 
Tides and Currents Weather Stations Pressure Air Temp Water Temp Dewpoint Dewpoint Depression Visibility Wind Speed Wind Dir Waves Ship Positions

Deva

Last reported at 2014-Nov-28 19:19 UTC. Time now 2014-Nov-28 21:45 UTC.
Position N 39°03' W 009°51'.

Length 259 m; draft 10.9 m.

Type: Ship (hazmat cat A). MMSI: 636013644.

Date/timePositionNaut miles runAvg speedWind from/ knotsBaromVisibWave heightAir tempDewpointWater temp
2014-Nov-28 19:19N 39°03' W 009°51'1317.2
2014-Nov-28 18:32N 38°50' W 009°52'1717.1
2014-Nov-28 17:33N 38°33' W 009°49'1717.3
2014-Nov-28 16:33N 38°16' W 009°45'1716.9
2014-Nov-28 15:33N 37°59' W 009°42'1616.4
2014-Nov-28 14:33N 37°44' W 009°34'2016.8
2014-Nov-28 13:22N 37°25' W 009°28'6215.4
2014-Nov-28 09:21N 36°36' W 008°40'15116.4
2014-Nov-28 00:08N 35°58' W 005°39'914.8
2014-Nov-27 23:33N 35°60' W 005°28'1515.4
2014-Nov-27 22:33N 36°04' W 005°10'73717.1
2014-Nov-26 03:28N 39°01' E 009°53'21017.3
2014-Nov-25 15:20N 40°24' E 014°03'1417.7
2014-Nov-25 14:33N 40°30' E 014°19'20 0.7
2014-Nov-24 10:33N 40°25' E 014°45'  
2014-Nov-19 16:33N 31°55' E 034°22'1817.8
2014-Nov-19 15:33N 32°00' E 034°02'  
Track history (hours):
 
Tides and Currents Weather Stations Pressure Air Temp Water Temp Dewpoint Dewpoint Depression Visibility Wind Speed Wind Dir Waves Ship Positions

Deva

Last reported at 2014-Nov-28 19:19 UTC. Time now 2014-Nov-28 21:45 UTC.
Position N 39°03' W 009°51'.

Length 259 m; draft 10.9 m.

Type: Ship (hazmat cat A). MMSI: 636013644.

Date/timePositionNaut miles runAvg speedWind from/ knotsBaromVisibWave heightAir tempDewpointWater temp
2014-Nov-28 19:19N 39°03' W 009°51'1317.2
2014-Nov-28 18:32N 38°50' W 009°52'1717.1
2014-Nov-28 17:33N 38°33' W 009°49'1717.3
2014-Nov-28 16:33N 38°16' W 009°45'1716.9
2014-Nov-28 15:33N 37°59' W 009°42'1616.4
2014-Nov-28 14:33N 37°44' W 009°34'2016.8
2014-Nov-28 13:22N 37°25' W 009°28'6215.4
2014-Nov-28 09:21N 36°36' W 008°40'15116.4
2014-Nov-28 00:08N 35°58' W 005°39'914.8
2014-Nov-27 23:33N 35°60' W 005°28'1515.4
2014-Nov-27 22:33N 36°04' W 005°10'73717.1
2014-Nov-26 03:28N 39°01' E 009°53'21017.3
2014-Nov-25 15:20N 40°24' E 014°03'1417.7
2014-Nov-25 14:33N 40°30' E 014°19'20 0.7
2014-Nov-24 10:33N 40°25' E 014°45'  
2014-Nov-19 16:33N 31°55' E 034°22'1817.8
2014-Nov-19 15:33N 32°00' E 034°02'  

Dump ship's entire track history